Time;durP1;ratioP1;P1;durP2;ratioP2;P2;SDS_P1;SDS_P2;PMS_P1;PMS_P2;Temp;Humidity;BMP_temperature;BMP_pressure;BME280_temperature;BME280_humidity;BME280_pressure;Samples;Min_cycle;Max_cycle;Signal;HPM_P1;HPM_P2
2023/07/01 00:01:37;;;;;;;20.27;5.10;;;16.10;99.90;;;;;;4989824;28;20058;-76
2023/07/01 00:04:24;;;;;;;14.07;5.10;;;16.00;99.90;;;;;;4989292;28;20102;-76
2023/07/01 00:07:10;;;;;;;13.68;5.53;;;16.00;99.90;;;;;;4971751;28;20582;-76
2023/07/01 00:09:56;;;;;;;13.38;4.90;;;16.00;99.90;;;;;;4972088;28;20530;-79
2023/07/01 00:12:42;;;;;;;20.00;5.97;;;15.90;99.90;;;;;;4988856;28;20418;-75
2023/07/01 00:15:28;;;;;;;10.23;4.65;;;15.90;99.90;;;;;;4990246;28;20050;-79
2023/07/01 00:18:14;;;;;;;14.52;4.68;;;15.80;99.90;;;;;;4989276;28;20076;-75
2023/07/01 00:21:00;;;;;;;15.35;5.40;;;15.80;99.90;;;;;;4989795;28;20100;-75
2023/07/01 00:23:46;;;;;;;11.73;4.85;;;15.70;99.90;;;;;;4971780;28;20042;-78
2023/07/01 00:26:32;;;;;;;17.42;4.90;;;15.70;99.90;;;;;;4988993;28;20195;-79
2023/07/01 00:29:18;;;;;;;14.98;4.90;;;15.70;99.90;;;;;;4988544;28;20058;-80
2023/07/01 00:32:05;;;;;;;10.30;4.00;;;15.60;99.90;;;;;;4987976;28;20062;-76
2023/07/01 00:34:52;;;;;;;10.40;4.68;;;15.60;99.90;;;;;;4989400;28;20046;-77
2023/07/01 00:37:38;;;;;;;14.52;5.32;;;15.60;99.90;;;;;;4989398;28;20137;-77
2023/07/01 00:40:24;;;;;;;15.77;5.18;;;15.70;99.90;;;;;;4971924;28;20206;-80
2023/07/01 00:43:10;;;;;;;12.95;4.47;;;15.70;99.90;;;;;;4990231;28;20096;-77
2023/07/01 00:45:57;;;;;;;10.60;4.30;;;15.70;99.90;;;;;;4974275;28;20112;-76
2023/07/01 00:48:43;;;;;;;12.45;5.50;;;15.60;99.90;;;;;;4988879;28;20462;-76
2023/07/01 00:51:30;;;;;;;11.00;4.60;;;15.60;99.90;;;;;;4988816;28;20050;-77
2023/07/01 00:54:16;;;;;;;13.55;4.38;;;15.60;99.90;;;;;;4971815;28;20062;-76
2023/07/01 00:57:04;;;;;;;10.07;4.18;;;15.60;99.90;;;;;;4988306;28;20145;-75
2023/07/01 00:59:50;;;;;;;11.80;5.13;;;15.60;99.90;;;;;;4988782;28;20854;-78
2023/07/01 01:03:21;;;;;;;11.30;4.90;;;15.60;99.90;;;;;;4987382;28;20058;-79
2023/07/01 01:06:46;;;;;;;9.70;4.30;;;15.60;99.90;;;;;;4987719;28;20046;-80
2023/07/01 01:09:45;;;;;;;14.70;5.18;;;15.60;99.90;;;;;;4987740;28;20410;-77
2023/07/01 01:12:33;;;;;;;16.35;4.88;;;15.50;99.90;;;;;;4973784;28;20113;-79
2023/07/01 01:15:19;;;;;;;10.55;4.72;;;15.50;99.90;;;;;;4961467;28;20613;-75
2023/07/01 01:18:07;;;;;;;13.27;4.35;;;15.50;99.90;;;;;;4960104;28;20674;-76
2023/07/01 01:20:55;;;;;;;10.45;4.72;;;15.50;99.90;;;;;;4973297;28;20050;-76
2023/07/01 01:24:00;;;;;;;13.15;4.35;;;15.50;99.90;;;;;;4973698;28;20042;-76
2023/07/01 01:26:50;;;;;;;14.65;5.47;;;15.50;99.90;;;;;;4973363;28;20046;-76
2023/07/01 01:29:36;;;;;;;13.52;5.20;;;15.50;99.90;;;;;;4992235;28;20136;-79
2023/07/01 01:32:22;;;;;;;15.10;5.45;;;15.50;99.90;;;;;;4991582;28;20050;-76
2023/07/01 01:35:08;;;;;;;11.88;6.00;;;15.40;99.90;;;;;;4990891;28;20046;-79
2023/07/01 01:38:09;;;;;;;12.73;5.07;;;15.40;99.90;;;;;;4992011;28;20054;-76
2023/07/01 01:41:06;;;;;;;8.75;5.38;;;15.40;99.90;;;;;;4973521;28;20529;-75
2023/07/01 01:44:10;;;;;;;12.57;5.85;;;15.40;99.90;;;;;;4989997;28;20046;-79
2023/07/01 01:46:57;;;;;;;10.98;5.65;;;15.40;99.90;;;;;;4990667;28;20136;-76
2023/07/01 01:49:48;;;;;;;10.88;5.80;;;15.40;99.90;;;;;;4975470;28;20141;-78
2023/07/01 01:52:35;;;;;;;11.73;5.72;;;15.40;99.90;;;;;;4991344;28;20462;-76
2023/07/01 01:55:22;;;;;;;10.55;5.18;;;15.40;99.90;;;;;;4977583;28;20129;-77
2023/07/01 01:58:08;;;;;;;12.02;5.68;;;15.50;99.90;;;;;;4990749;28;20050;-77
2023/07/01 02:00:55;;;;;;;10.45;5.63;;;15.40;99.90;;;;;;4944602;28;1307545;-77
2023/07/01 02:03:46;;;;;;;13.68;6.70;;;15.50;99.90;;;;;;4990996;28;20061;-75
2023/07/01 02:06:34;;;;;;;11.57;6.53;;;15.50;99.90;;;;;;4990849;28;20053;-77
2023/07/01 02:09:20;;;;;;;17.23;7.25;;;15.50;99.90;;;;;;4991341;28;20116;-75
2023/07/01 02:12:06;;;;;;;13.43;7.32;;;15.40;99.90;;;;;;4991171;28;20050;-77
2023/07/01 02:14:53;;;;;;;11.35;6.50;;;15.40;99.90;;;;;;4990507;28;20506;-77
2023/07/01 02:17:39;;;;;;;13.38;7.22;;;15.40;99.90;;;;;;4990612;28;20070;-77
2023/07/01 02:20:25;;;;;;;13.40;7.43;;;15.40;99.90;;;;;;4974596;28;20050;-76
2023/07/01 02:23:11;;;;;;;10.80;6.68;;;15.40;99.90;;;;;;4960640;28;20564;-77
2023/07/01 02:25:57;;;;;;;14.05;7.07;;;15.40;99.90;;;;;;4992025;28;20069;-78
2023/07/01 02:28:43;;;;;;;13.68;7.57;;;15.40;99.90;;;;;;4991010;28;20047;-78
2023/07/01 02:31:29;;;;;;;14.35;6.72;;;15.40;99.90;;;;;;4990257;28;20054;-80
2023/07/01 02:34:23;;;;;;;11.45;7.00;;;15.30;99.90;;;;;;4991420;28;20526;-79
2023/07/01 02:37:09;;;;;;;12.30;6.28;;;15.40;99.90;;;;;;4991083;28;20081;-79
2023/07/01 02:39:56;;;;;;;13.05;5.78;;;15.30;99.90;;;;;;4991597;28;20055;-77
2023/07/01 02:42:42;;;;;;;13.43;6.95;;;15.40;99.90;;;;;;4973667;28;20065;-78
2023/07/01 02:45:28;;;;;;;13.32;6.75;;;15.40;99.90;;;;;;4992865;28;20050;-77
2023/07/01 02:48:14;;;;;;;11.15;6.78;;;15.40;99.90;;;;;;4991610;28;20061;-76
2023/07/01 02:51:00;;;;;;;9.88;6.28;;;15.40;99.90;;;;;;4973135;28;20061;-75
2023/07/01 02:53:46;;;;;;;12.27;6.97;;;15.40;99.90;;;;;;4960524;28;20054;-78
2023/07/01 02:56:33;;;;;;;10.05;6.88;;;15.50;99.90;;;;;;4990778;28;20058;-77
2023/07/01 02:59:19;;;;;;;10.90;6.80;;;15.50;99.90;;;;;;4972563;28;20054;-76
2023/07/01 03:02:06;;;;;;;11.25;6.75;;;15.50;99.90;;;;;;4989754;28;20050;-76
2023/07/01 03:04:52;;;;;;;15.70;6.78;;;15.50;99.90;;;;;;4992205;28;20054;-76
2023/07/01 03:07:38;;;;;;;12.38;7.45;;;15.50;99.90;;;;;;4977333;28;20339;-75
2023/07/01 03:10:24;;;;;;;12.63;7.25;;;15.50;99.90;;;;;;4974081;28;20512;-75
2023/07/01 03:13:10;;;;;;;11.73;7.10;;;15.60;99.90;;;;;;4991420;28;20054;-74
2023/07/01 03:15:56;;;;;;;12.27;7.55;;;15.50;99.90;;;;;;4973318;28;20054;-73
2023/07/01 03:18:43;;;;;;;10.68;7.07;;;15.60;99.90;;;;;;4989999;28;20089;-76
2023/07/01 03:21:29;;;;;;;13.48;6.95;;;15.50;99.90;;;;;;4989896;28;20053;-76
2023/07/01 03:24:15;;;;;;;12.23;8.23;;;15.50;99.90;;;;;;4990392;28;20048;-75
2023/07/01 03:27:02;;;;;;;13.35;8.10;;;15.50;99.90;;;;;;4972054;28;20066;-75
2023/07/01 03:29:49;;;;;;;16.40;9.90;;;15.50;99.90;;;;;;4972155;28;20054;-74
2023/07/01 03:32:35;;;;;;;13.70;8.23;;;15.50;99.90;;;;;;4990526;28;20062;-72
2023/07/01 03:35:21;;;;;;;12.57;8.20;;;15.50;99.90;;;;;;4971550;28;20054;-72
2023/07/01 03:38:07;;;;;;;17.20;8.50;;;15.50;99.90;;;;;;4989363;28;20050;-73
2023/07/01 03:40:53;;;;;;;17.48;7.38;;;15.50;99.90;;;;;;4988595;28;20050;-74
2023/07/01 03:43:39;;;;;;;18.98;8.30;;;15.50;99.90;;;;;;4989112;28;20065;-75
2023/07/01 03:46:25;;;;;;;10.52;7.70;;;15.60;99.90;;;;;;4972716;28;20050;-72
2023/07/01 03:49:11;;;;;;;9.10;7.40;;;15.60;99.90;;;;;;4990293;28;20057;-75
2023/07/01 03:51:57;;;;;;;10.75;7.93;;;15.60;99.90;;;;;;4989839;28;20050;-75
2023/07/01 03:54:43;;;;;;;11.25;8.10;;;15.60;99.90;;;;;;4989634;28;20092;-73
2023/07/01 03:57:30;;;;;;;12.95;7.68;;;15.60;99.90;;;;;;4990344;28;20057;-78
2023/07/01 04:00:19;;;;;;;11.25;7.82;;;15.60;99.90;;;;;;4988569;28;20057;-75
2023/07/01 04:03:05;;;;;;;12.65;8.55;;;15.60;99.90;;;;;;4989342;28;20413;-75
2023/07/01 04:05:52;;;;;;;12.90;8.55;;;15.60;99.90;;;;;;4990421;28;20046;-77
2023/07/01 04:08:38;;;;;;;13.73;9.85;;;15.60;99.90;;;;;;4972175;28;20076;-78
2023/07/01 04:11:24;;;;;;;16.65;10.15;;;15.60;99.90;;;;;;4971701;28;20058;-76
2023/07/01 04:14:10;;;;;;;18.15;10.63;;;15.60;99.90;;;;;;4991837;28;20061;-78
2023/07/01 04:16:56;;;;;;;15.15;10.20;;;15.60;99.90;;;;;;4992479;28;20046;-76
2023/07/01 04:19:42;;;;;;;18.02;11.35;;;15.60;99.90;;;;;;4990057;28;20065;-80
2023/07/01 04:22:29;;;;;;;17.17;11.40;;;15.60;99.90;;;;;;4972815;28;20487;-80
2023/07/01 04:25:15;;;;;;;16.02;12.30;;;15.60;99.90;;;;;;4989215;28;20050;-79
2023/07/01 04:28:02;;;;;;;14.95;12.13;;;15.60;99.90;;;;;;4990726;28;20058;-80
2023/07/01 04:30:48;;;;;;;19.13;13.40;;;15.60;99.90;;;;;;4990308;28;20399;-79
2023/07/01 04:33:34;;;;;;;17.45;11.70;;;15.60;99.90;;;;;;4991290;28;20093;-80
2023/07/01 04:36:21;;;;;;;19.13;13.07;;;15.60;99.90;;;;;;4990307;28;20687;-79
2023/07/01 04:39:09;;;;;;;13.20;10.85;;;15.60;99.90;;;;;;4990563;28;20450;-73
2023/07/01 04:41:55;;;;;;;16.05;11.90;;;15.60;99.90;;;;;;4989480;28;20078;-74
2023/07/01 04:44:41;;;;;;;16.85;12.02;;;15.60;99.90;;;;;;4985331;28;20108;-75
2023/07/01 04:47:27;;;;;;;16.15;11.75;;;15.60;99.90;;;;;;4993962;28;20141;-74
2023/07/01 04:50:14;;;;;;;13.20;9.95;;;15.60;99.90;;;;;;4994295;28;20050;-75
2023/07/01 04:53:00;;;;;;;13.40;10.23;;;15.60;99.90;;;;;;4993865;28;20062;-73
2023/07/01 04:55:47;;;;;;;13.88;10.55;;;15.60;99.90;;;;;;4977477;28;20061;-73
2023/07/01 04:58:34;;;;;;;11.93;8.90;;;15.60;99.90;;;;;;4993751;28;20050;-74
2023/07/01 05:01:20;;;;;;;16.05;10.30;;;15.60;99.90;;;;;;4992731;28;20058;-75
2023/07/01 05:04:06;;;;;;;17.27;10.82;;;15.70;99.90;;;;;;4993553;28;20523;-77
2023/07/01 05:06:52;;;;;;;12.60;9.60;;;15.70;99.90;;;;;;4993708;28;20498;-78
2023/07/01 05:09:39;;;;;;;17.13;10.63;;;15.70;99.90;;;;;;4975045;28;20105;-76
2023/07/01 05:12:26;;;;;;;12.68;9.60;;;15.70;99.90;;;;;;4993209;28;20062;-74
2023/07/01 05:15:12;;;;;;;12.45;9.48;;;15.70;99.90;;;;;;4992791;28;20095;-75
2023/07/01 05:17:58;;;;;;;11.55;8.50;;;15.70;99.90;;;;;;4975748;28;20047;-77
2023/07/01 05:20:45;;;;;;;11.25;8.82;;;15.80;99.90;;;;;;4975214;28;20054;-74
2023/07/01 05:23:31;;;;;;;14.02;9.52;;;15.80;99.90;;;;;;4977345;28;20054;-75
2023/07/01 05:26:17;;;;;;;12.88;8.93;;;15.80;99.90;;;;;;4961538;28;20046;-74
2023/07/01 05:29:03;;;;;;;11.35;8.63;;;15.90;99.90;;;;;;4992410;28;20170;-75
2023/07/01 05:31:49;;;;;;;12.25;9.35;;;15.90;99.90;;;;;;4992540;28;20086;-75
2023/07/01 05:34:36;;;;;;;11.52;8.15;;;15.90;99.90;;;;;;4992024;28;20081;-76
2023/07/01 05:37:22;;;;;;;15.07;9.15;;;15.90;99.90;;;;;;4992956;28;20056;-77
2023/07/01 05:40:09;;;;;;;13.55;8.02;;;16.00;99.90;;;;;;4977606;28;20529;-75
2023/07/01 05:42:55;;;;;;;9.75;7.50;;;16.00;99.90;;;;;;4975581;28;20402;-75
2023/07/01 05:45:41;;;;;;;12.90;8.30;;;16.10;99.90;;;;;;4992775;28;20100;-74
2023/07/01 05:48:27;;;;;;;9.15;6.60;;;16.00;99.90;;;;;;4992242;28;20057;-77
2023/07/01 05:51:13;;;;;;;11.88;7.78;;;16.10;99.90;;;;;;4977463;28;20120;-74
2023/07/01 05:54:00;;;;;;;12.50;7.63;;;16.10;99.90;;;;;;4974818;28;20054;-75
2023/07/01 05:56:46;;;;;;;9.27;6.25;;;16.10;99.90;;;;;;4974736;28;20058;-74
2023/07/01 05:59:32;;;;;;;13.02;8.18;;;16.20;99.90;;;;;;4991475;28;20563;-73
2023/07/01 06:02:18;;;;;;;8.10;6.10;;;16.20;99.90;;;;;;4972943;28;20132;-74
2023/07/01 06:05:04;;;;;;;8.65;6.25;;;16.20;99.90;;;;;;4993137;28;20056;-75
2023/07/01 06:07:51;;;;;;;8.85;5.85;;;16.30;99.90;;;;;;4961081;28;20058;-75
2023/07/01 06:10:37;;;;;;;7.75;4.70;;;16.30;99.90;;;;;;4975734;28;20154;-74
2023/07/01 06:13:23;;;;;;;7.13;4.45;;;16.40;99.90;;;;;;4990641;28;20090;-74
2023/07/01 06:16:09;;;;;;;10.00;5.15;;;16.40;99.90;;;;;;4976816;28;20561;-74
2023/07/01 06:18:55;;;;;;;6.40;3.95;;;16.50;99.90;;;;;;4991163;28;20043;-75
2023/07/01 06:21:42;;;;;;;6.90;3.58;;;16.50;99.90;;;;;;4960576;28;20078;-76
2023/07/01 06:24:29;;;;;;;6.95;3.90;;;16.60;99.90;;;;;;4974436;28;20058;-76
2023/07/01 06:27:15;;;;;;;9.27;3.83;;;16.60;99.90;;;;;;4990696;28;20050;-78
2023/07/01 06:30:01;;;;;;;5.75;2.50;;;16.60;99.90;;;;;;4990853;28;20062;-74
2023/07/01 06:32:47;;;;;;;5.78;2.90;;;16.70;99.90;;;;;;4990395;28;20057;-74
2023/07/01 06:35:34;;;;;;;5.60;3.08;;;16.60;99.90;;;;;;4990572;28;20506;-74
2023/07/01 06:38:20;;;;;;;4.88;3.03;;;16.70;99.90;;;;;;4974131;28;20091;-75
2023/07/01 06:41:06;;;;;;;4.93;2.80;;;16.70;99.90;;;;;;4990448;28;20054;-75
2023/07/01 06:43:52;;;;;;;8.32;2.95;;;16.80;99.90;;;;;;4991098;28;20414;-75
2023/07/01 06:46:39;;;;;;;3.97;2.35;;;16.90;99.90;;;;;;4989578;28;20058;-74
2023/07/01 06:49:25;;;;;;;6.13;2.65;;;16.90;99.90;;;;;;4989987;28;20437;-74
2023/07/01 06:52:11;;;;;;;4.07;2.00;;;16.90;99.90;;;;;;4990661;28;20057;-73
2023/07/01 06:54:57;;;;;;;3.75;2.22;;;17.00;99.90;;;;;;4960801;28;20096;-74
2023/07/01 06:57:44;;;;;;;3.50;1.83;;;17.00;99.90;;;;;;4990698;28;20573;-73
2023/07/01 07:00:30;;;;;;;5.25;1.98;;;17.00;99.90;;;;;;4990295;28;20058;-76
2023/07/01 07:03:16;;;;;;;3.30;1.83;;;17.10;99.90;;;;;;4990725;28;20057;-73
2023/07/01 07:06:02;;;;;;;3.65;1.95;;;17.10;99.90;;;;;;4990013;28;20046;-76
2023/07/01 07:08:49;;;;;;;5.43;1.67;;;17.10;99.90;;;;;;4972472;28;20506;-75
2023/07/01 07:11:35;;;;;;;3.17;1.48;;;17.10;99.90;;;;;;4990619;28;20073;-74
2023/07/01 07:14:22;;;;;;;3.53;1.77;;;17.20;99.90;;;;;;4991344;28;20058;-75
2023/07/01 07:17:08;;;;;;;3.28;1.45;;;17.20;99.90;;;;;;4973017;28;20141;-75
2023/07/01 07:19:55;;;;;;;2.97;0.90;;;17.20;99.90;;;;;;4972892;28;20050;-74
2023/07/01 07:22:41;;;;;;;9.20;1.30;;;17.20;99.90;;;;;;4975398;28;20057;-74
2023/07/01 07:25:27;;;;;;;2.78;1.40;;;17.30;99.90;;;;;;4990678;28;20077;-73
2023/07/01 07:28:14;;;;;;;2.47;1.05;;;17.30;99.90;;;;;;4989718;28;20050;-76
2023/07/01 07:31:00;;;;;;;1.27;0.63;;;17.20;99.90;;;;;;4973098;28;20054;-74
2023/07/01 07:33:46;;;;;;;1.88;1.05;;;17.30;99.90;;;;;;4990683;28;20058;-74
2023/07/01 07:36:32;;;;;;;2.38;0.90;;;17.30;99.90;;;;;;4989166;28;20479;-73
2023/07/01 07:39:18;;;;;;;7.13;1.50;;;17.30;99.90;;;;;;4990344;28;20046;-75
2023/07/01 07:42:05;;;;;;;2.30;1.00;;;17.30;99.90;;;;;;4989845;28;20057;-74
2023/07/01 07:44:51;;;;;;;1.83;0.60;;;17.40;99.90;;;;;;4989224;28;20057;-73
2023/07/01 07:47:37;;;;;;;1.52;0.60;;;17.40;99.90;;;;;;4975627;28;20054;-74
2023/07/01 07:50:23;;;;;;;1.80;0.70;;;17.40;99.90;;;;;;4989537;28;20507;-74
2023/07/01 07:53:12;;;;;;;1.95;0.70;;;17.50;99.90;;;;;;4972447;28;20085;-74
2023/07/01 07:55:58;;;;;;;1.48;0.63;;;17.50;99.90;;;;;;4989441;28;20082;-74
2023/07/01 07:58:45;;;;;;;2.17;1.00;;;17.50;99.90;;;;;;4990341;28;20050;-76
2023/07/01 08:01:31;;;;;;;4.05;1.10;;;17.60;99.90;;;;;;4988567;28;20062;-75
2023/07/01 08:04:17;;;;;;;3.35;1.27;;;17.60;99.90;;;;;;4976229;28;20533;-75
2023/07/01 08:07:03;;;;;;;3.53;1.67;;;17.70;99.90;;;;;;4989834;28;20189;-75
2023/07/01 08:09:50;;;;;;;4.65;2.20;;;17.70;99.90;;;;;;4990810;28;20054;-75
2023/07/01 08:12:36;;;;;;;4.53;2.33;;;17.70;99.90;;;;;;4971465;28;20121;-76
2023/07/01 08:15:22;;;;;;;5.90;2.00;;;17.70;99.90;;;;;;4989295;28;20602;-76
2023/07/01 08:18:08;;;;;;;8.02;3.20;;;17.70;99.90;;;;;;4988262;28;20058;-74
2023/07/01 08:20:55;;;;;;;4.75;2.50;;;17.70;99.90;;;;;;4990438;28;20051;-75
2023/07/01 08:23:41;;;;;;;5.07;2.42;;;17.80;99.90;;;;;;4978138;28;20506;-74
2023/07/01 08:26:27;;;;;;;5.93;2.38;;;17.80;99.90;;;;;;4972233;28;20112;-74
2023/07/01 08:29:13;;;;;;;5.28;2.45;;;17.90;99.90;;;;;;4993686;28;20046;-73
2023/07/01 08:31:59;;;;;;;9.05;2.63;;;17.90;99.90;;;;;;4992836;28;20108;-73
2023/07/01 08:34:45;;;;;;;6.68;2.38;;;17.90;99.90;;;;;;4993588;28;20158;-74
2023/07/01 08:37:33;;;;;;;4.25;2.00;;;18.00;99.90;;;;;;4976260;28;20065;-75
2023/07/01 08:40:19;;;;;;;3.45;2.03;;;18.00;99.90;;;;;;4993595;28;20189;-74
2023/07/01 08:43:09;;;;;;;4.63;2.40;;;18.00;99.90;;;;;;4995185;28;20050;-74
2023/07/01 08:46:01;;;;;;;6.18;2.38;;;18.20;99.90;;;;;;4993150;28;20047;-74
2023/07/01 08:48:48;;;;;;;6.50;2.35;;;18.30;99.90;;;;;;4992883;28;20052;-75
2023/07/01 08:51:41;;;;;;;5.63;2.30;;;18.30;99.90;;;;;;4980536;28;20050;-76
2023/07/01 08:54:27;;;;;;;5.03;2.63;;;18.20;99.90;;;;;;4993140;28;20046;-75
2023/07/01 08:57:14;;;;;;;5.32;2.90;;;18.20;99.90;;;;;;4991269;28;20119;-74
2023/07/01 09:00:01;;;;;;;9.15;4.13;;;18.20;99.90;;;;;;4975524;28;20070;-75
2023/07/01 09:02:48;;;;;;;6.30;4.28;;;18.20;99.90;;;;;;4992104;28;20050;-75
2023/07/01 09:05:34;;;;;;;9.63;4.50;;;18.20;99.90;;;;;;4992437;28;20140;-75
2023/07/01 09:08:20;;;;;;;7.55;4.10;;;18.30;99.90;;;;;;4978893;28;20058;-76
2023/07/01 09:11:10;;;;;;;6.50;4.13;;;18.20;99.90;;;;;;4992933;28;20049;-76
2023/07/01 09:13:56;;;;;;;8.15;4.75;;;18.20;99.90;;;;;;4992231;28;20054;-76
2023/07/01 09:16:42;;;;;;;6.82;4.60;;;18.20;99.90;;;;;;4991772;28;20108;-76
2023/07/01 09:19:29;;;;;;;8.07;5.22;;;18.10;99.90;;;;;;4961920;28;20410;-74
2023/07/01 09:22:15;;;;;;;13.02;5.38;;;18.10;99.90;;;;;;4975374;28;20050;-75
2023/07/01 09:25:02;;;;;;;12.95;5.82;;;18.10;99.90;;;;;;4992820;28;20233;-75
2023/07/01 09:27:49;;;;;;;9.70;6.03;;;18.10;99.90;;;;;;4976223;28;20523;-75
2023/07/01 09:30:37;;;;;;;13.25;7.25;;;18.20;99.90;;;;;;4993305;28;20043;-74
2023/07/01 09:33:23;;;;;;;16.85;7.28;;;18.30;99.90;;;;;;4978211;28;20451;-74
2023/07/01 09:36:22;;;;;;;15.23;7.63;;;18.40;99.90;;;;;;4991941;28;20065;-75
2023/07/01 09:39:09;;;;;;;13.85;7.88;;;18.40;99.90;;;;;;4992144;28;20081;-75
2023/07/01 09:42:03;;;;;;;15.50;8.60;;;18.50;99.90;;;;;;4991676;28;20123;-74
2023/07/01 09:45:05;;;;;;;17.33;9.50;;;18.50;99.90;;;;;;4974071;28;20050;-74
2023/07/01 09:47:52;;;;;;;16.13;8.98;;;18.60;99.90;;;;;;4991119;28;20054;-74
2023/07/01 09:50:40;;;;;;;14.45;8.85;;;18.70;99.90;;;;;;4975116;28;20055;-75
2023/07/01 09:53:33;;;;;;;18.55;10.13;;;18.70;99.90;;;;;;4974252;28;20058;-74
2023/07/01 09:56:20;;;;;;;18.67;8.35;;;18.80;99.90;;;;;;4992121;28;20062;-74
2023/07/01 09:59:06;;;;;;;21.60;9.73;;;18.80;99.90;;;;;;4977497;28;20597;-73
2023/07/01 10:01:55;;;;;;;16.80;8.05;;;18.80;99.90;;;;;;4990930;28;20057;-75
2023/07/01 10:04:41;;;;;;;12.40;8.00;;;18.70;99.90;;;;;;4974724;28;20050;-75
2023/07/01 10:07:28;;;;;;;16.33;8.57;;;18.70;99.90;;;;;;4974927;28;20058;-75
2023/07/01 10:10:17;;;;;;;17.15;7.72;;;18.70;99.90;;;;;;4960481;28;20450;-75
2023/07/01 10:13:06;;;;;;;13.95;7.43;;;18.70;99.90;;;;;;4992244;28;20058;-77
2023/07/01 10:15:52;;;;;;;15.95;8.48;;;18.80;99.90;;;;;;4990589;28;20104;-74
2023/07/01 10:18:38;;;;;;;16.65;8.18;;;18.80;99.90;;;;;;4976363;28;20042;-76
2023/07/01 10:21:24;;;;;;;13.57;7.45;;;19.00;99.90;;;;;;4991171;28;20050;-75
2023/07/01 10:24:11;;;;;;;18.45;7.43;;;19.00;99.90;;;;;;4973094;28;20070;-75
2023/07/01 10:26:57;;;;;;;14.88;6.80;;;19.30;99.90;;;;;;4973632;28;20096;-75
2023/07/01 10:29:55;;;;;;;14.38;7.53;;;19.50;99.90;;;;;;4973905;28;20054;-75
2023/07/01 10:32:43;;;;;;;12.88;6.22;;;19.60;99.90;;;;;;4991223;28;20073;-75
2023/07/01 10:35:29;;;;;;;11.45;6.53;;;19.60;99.90;;;;;;4991285;28;20046;-75
2023/07/01 10:38:21;;;;;;;12.90;7.38;;;19.50;99.90;;;;;;4991838;28;20136;-75
2023/07/01 10:41:07;;;;;;;13.07;7.32;;;19.50;99.90;;;;;;4972854;28;20387;-76
2023/07/01 10:44:23;;;;;;;11.02;6.20;;;19.60;99.90;;;;;;4989706;28;20097;-80
2023/07/01 10:47:13;;;;;;;9.55;6.22;;;19.60;99.90;;;;;;4990352;28;20066;-74
2023/07/01 10:50:00;;;;;;;11.75;5.43;;;19.60;99.90;;;;;;4990646;28;20085;-74
2023/07/01 10:52:58;;;;;;;10.32;5.35;;;19.40;99.90;;;;;;4990693;28;20046;-75
2023/07/01 10:55:49;;;;;;;11.40;6.35;;;19.20;99.90;;;;;;4990250;28;20050;-75
2023/07/01 10:58:35;;;;;;;9.40;6.03;;;19.20;99.90;;;;;;4990797;28;20459;-76
2023/07/01 11:01:41;;;;;;;12.57;5.05;;;19.30;99.90;;;;;;4974993;28;20057;-75
2023/07/01 11:04:52;;;;;;;10.15;6.32;;;19.40;99.90;;;;;;4993358;28;20050;-75
2023/07/01 11:07:41;;;;;;;13.95;5.97;;;19.50;99.90;;;;;;4991192;28;20104;-74
2023/07/01 11:10:28;;;;;;;7.32;4.22;;;19.50;99.90;;;;;;4973866;28;20046;-76
2023/07/01 11:13:17;;;;;;;9.13;5.07;;;19.30;99.90;;;;;;4990134;28;20054;-76
2023/07/01 11:16:09;;;;;;;12.60;5.50;;;19.30;99.90;;;;;;4989849;28;20054;-78
2023/07/01 11:18:57;;;;;;;8.50;5.38;;;19.40;99.90;;;;;;4989906;28;20046;-76
2023/07/01 11:21:43;;;;;;;9.98;5.22;;;19.70;99.90;;;;;;4989973;28;20105;-76
2023/07/01 11:24:30;;;;;;;17.30;4.45;;;19.90;99.90;;;;;;4990297;28;20052;-78
2023/07/01 11:27:17;;;;;;;7.90;4.93;;;20.00;99.90;;;;;;4990671;28;20081;-76
2023/07/01 11:30:04;;;;;;;9.15;4.63;;;20.00;99.90;;;;;;4963584;28;20129;-74
2023/07/01 11:32:50;;;;;;;7.60;4.25;;;20.10;99.90;;;;;;4990184;28;20140;-76
2023/07/01 11:35:52;;;;;;;9.80;4.57;;;20.00;99.90;;;;;;4990112;28;20050;-75
2023/07/01 11:38:38;;;;;;;13.30;4.45;;;20.00;99.90;;;;;;4960130;28;20093;-78
2023/07/01 11:41:24;;;;;;;9.82;4.07;;;19.70;99.90;;;;;;4989341;28;20061;-73
2023/07/01 11:44:12;;;;;;;6.70;3.50;;;19.60;99.90;;;;;;4972489;28;20096;-74
2023/07/01 11:46:58;;;;;;;10.30;3.63;;;19.50;99.90;;;;;;4989232;28;20068;-75
2023/07/01 11:49:45;;;;;;;10.60;2.97;;;19.40;99.90;;;;;;4972365;28;20046;-74
2023/07/01 11:52:31;;;;;;;8.57;3.58;;;19.50;99.90;;;;;;4990497;28;20050;-74
2023/07/01 11:55:34;;;;;;;9.13;3.15;;;19.80;99.90;;;;;;4989560;28;20577;-77
2023/07/01 11:58:31;;;;;;;6.75;3.42;;;20.50;99.90;;;;;;4989801;28;20086;-77
2023/07/01 12:01:24;;;;;;;8.98;4.20;;;20.50;99.90;;;;;;4988408;28;20133;-74
2023/07/01 12:04:15;;;;;;;6.70;3.20;;;20.50;99.90;;;;;;4988870;28;20050;-75
2023/07/01 12:07:16;;;;;;;9.98;3.60;;;20.40;99.90;;;;;;4972929;28;20108;-75
2023/07/01 12:10:20;;;;;;;6.93;3.65;;;20.70;99.90;;;;;;4990316;28;20113;-79
2023/07/01 12:13:07;;;;;;;10.55;3.90;;;21.00;99.90;;;;;;4959104;28;20120;-76
2023/07/01 12:15:57;;;;;;;5.57;3.35;;;21.20;99.90;;;;;;4989490;28;20042;-76
2023/07/01 12:18:43;;;;;;;8.35;3.40;;;21.10;99.90;;;;;;4972681;28;20054;-78
2023/07/01 12:21:29;;;;;;;7.63;3.75;;;21.00;99.90;;;;;;4973774;28;20142;-78
2023/07/01 12:24:20;;;;;;;10.60;2.88;;;20.70;99.90;;;;;;4972429;28;20415;-76
2023/07/01 12:27:07;;;;;;;11.15;3.08;;;20.60;99.90;;;;;;4972601;28;20062;-75
2023/07/01 12:29:53;;;;;;;6.40;2.53;;;20.60;99.90;;;;;;4971505;28;20286;-77
2023/07/01 12:32:39;;;;;;;5.97;2.35;;;20.40;99.90;;;;;;4958343;28;20058;-78
2023/07/01 12:35:25;;;;;;;6.65;2.17;;;20.50;99.90;;;;;;4988928;28;20065;-77
2023/07/01 12:38:12;;;;;;;7.10;2.10;;;20.50;99.90;;;;;;4989008;28;20060;-74
2023/07/01 12:40:58;;;;;;;9.15;2.40;;;20.50;99.90;;;;;;4971232;28;20050;-77
2023/07/01 12:43:47;;;;;;;10.30;2.38;;;20.50;99.90;;;;;;4973381;28;20081;-76
2023/07/01 12:46:33;;;;;;;6.28;2.60;;;20.50;99.90;;;;;;4974203;28;20078;-77
2023/07/01 12:49:21;;;;;;;6.60;2.40;;;20.60;99.90;;;;;;4990225;28;20047;-77
2023/07/01 12:52:07;;;;;;;5.53;1.92;;;20.80;99.90;;;;;;4973241;28;20050;-79
2023/07/01 12:54:53;;;;;;;5.25;1.60;;;21.00;99.90;;;;;;4972642;28;20545;-76
2023/07/01 12:57:39;;;;;;;6.38;1.55;;;21.30;99.90;;;;;;4974891;28;20579;-78
2023/07/01 13:00:26;;;;;;;8.05;1.58;;;21.40;99.90;;;;;;4971835;28;20093;-75
2023/07/01 13:03:12;;;;;;;3.80;1.35;;;21.80;99.90;;;;;;4957694;28;20054;-80
2023/07/01 13:05:59;;;;;;;8.85;1.75;;;21.90;99.90;;;;;;4989202;28;20047;-79
2023/07/01 13:08:45;;;;;;;3.72;1.33;;;22.10;99.90;;;;;;4975058;28;20074;-77
2023/07/01 13:11:33;;;;;;;5.07;1.70;;;22.20;99.90;;;;;;4961594;28;20137;-76
2023/07/01 13:14:22;;;;;;;4.57;1.40;;;22.00;99.90;;;;;;4991530;28;20113;-77
2023/07/01 13:17:09;;;;;;;3.92;1.58;;;21.90;99.90;;;;;;4993462;28;20054;-76
2023/07/01 13:19:55;;;;;;;5.38;1.80;;;21.80;99.90;;;;;;4992342;28;20054;-77
2023/07/01 13:22:41;;;;;;;6.07;2.63;;;21.90;99.90;;;;;;4993276;28;20054;-78
2023/07/01 13:25:28;;;;;;;8.27;2.78;;;22.00;99.90;;;;;;4974776;28;20066;-77
2023/07/01 13:28:14;;;;;;;5.85;2.13;;;22.10;99.90;;;;;;4976510;28;20064;-76
2023/07/01 13:31:00;;;;;;;9.57;2.85;;;22.00;99.90;;;;;;4991683;28;20163;-75
2023/07/01 13:33:48;;;;;;;7.78;2.65;;;22.00;99.90;;;;;;4992856;28;20502;-75
2023/07/01 13:36:38;;;;;;;6.97;2.28;;;21.70;99.90;;;;;;4975144;28;20058;-76
2023/07/01 13:39:50;;;;;;;5.45;2.05;;;21.60;99.90;;;;;;4975927;28;20054;-79
2023/07/01 13:42:37;;;;;;;7.95;1.67;;;21.60;99.90;;;;;;4993758;28;20505;-77
2023/07/01 13:45:27;;;;;;;5.13;1.88;;;21.40;99.90;;;;;;4991828;28;20422;-77
2023/07/01 13:48:22;;;;;;;8.23;2.38;;;21.50;99.90;;;;;;4978811;28;20129;-76
2023/07/01 13:51:08;;;;;;;8.48;2.40;;;21.50;99.90;;;;;;4995031;28;20047;-77
2023/07/01 13:53:55;;;;;;;6.18;1.90;;;21.50;99.90;;;;;;4995136;28;20046;-77
2023/07/01 13:56:41;;;;;;;9.80;2.35;;;21.60;99.90;;;;;;4993670;28;20046;-75
2023/07/01 13:59:28;;;;;;;6.97;2.25;;;21.50;99.90;;;;;;4976923;28;20648;-78
2023/07/01 14:02:14;;;;;;;7.50;2.13;;;21.20;99.90;;;;;;4973731;28;20141;-77
2023/07/01 14:05:00;;;;;;;5.68;2.00;;;21.10;99.90;;;;;;4992199;28;20054;-78
2023/07/01 14:07:46;;;;;;;12.00;3.55;;;20.80;99.90;;;;;;4993115;28;20101;-77
2023/07/01 14:10:35;;;;;;;6.63;1.92;;;20.70;99.90;;;;;;4991890;28;20049;-78
2023/07/01 14:13:28;;;;;;;7.00;1.98;;;20.60;99.90;;;;;;4992073;28;20050;-77
2023/07/01 14:16:22;;;;;;;5.82;2.08;;;20.30;99.90;;;;;;4990745;28;20141;-77
2023/07/01 14:19:10;;;;;;;6.65;2.53;;;20.30;99.90;;;;;;4972790;28;20051;-78
2023/07/01 14:21:59;;;;;;;6.28;2.28;;;20.20;99.90;;;;;;4992279;28;20046;-77
2023/07/01 14:24:47;;;;;;;7.63;2.60;;;20.40;99.90;;;;;;4992007;28;20128;-78
2023/07/01 14:27:33;;;;;;;8.80;2.85;;;20.50;99.90;;;;;;4975683;28;20049;-79